Time;durP1;ratioP1;P1;durP2;ratioP2;P2;SDS_P1;SDS_P2;PMS_P1;PMS_P2;Temp;Humidity;BMP_temperature;BMP_pressure;BME280_temperature;BME280_humidity;BME280_pressure;Samples;Min_cycle;Max_cycle;Signal;HPM_P1;HPM_P2
2023/03/30 00:01:13;;;;;;;4.00;3.10;;;;;;;14.05;54.10;97579.66;8381221;28;20236;-70
2023/03/30 00:05:18;;;;;;;4.57;2.90;;;;;;;14.26;53.03;97575.69;8382449;28;20228;-70
2023/03/30 00:09:21;;;;;;;5.10;3.07;;;;;;;14.22;53.60;97578.56;8382310;28;20230;-70
2023/03/30 00:13:24;;;;;;;3.53;2.57;;;;;;;14.21;53.45;97574.31;8382096;28;20429;-69
2023/03/30 00:17:27;;;;;;;3.70;2.60;;;;;;;14.11;53.38;97568.00;8382149;28;20230;-70
2023/03/30 00:21:32;;;;;;;3.67;2.20;;;;;;;14.24;53.36;97572.34;8381774;28;20239;-69
2023/03/30 00:25:34;;;;;;;4.10;2.60;;;;;;;13.83;54.54;97573.22;8381829;28;20231;-70
2023/03/30 00:29:37;;;;;;;3.37;2.60;;;;;;;13.96;54.10;97562.88;8381640;28;20283;-70
2023/03/30 00:33:40;;;;;;;3.67;2.20;;;;;;;13.77;54.66;97565.00;8381314;28;20226;-70
2023/03/30 00:37:50;;;;;;;3.87;2.70;;;;;;;13.34;56.16;97562.47;8381006;28;20231;-70
2023/03/30 00:41:53;;;;;;;4.20;2.60;;;;;;;13.56;55.72;97551.59;8380836;28;20238;-70
2023/03/30 00:45:56;;;;;;;4.87;2.77;;;;;;;13.71;54.68;97544.53;8381042;28;20401;-70
2023/03/30 00:50:00;;;;;;;3.27;2.40;;;;;;;13.35;56.42;97543.34;8380797;28;20293;-70
2023/03/30 00:54:06;;;;;;;5.27;2.77;;;;;;;13.54;55.52;97540.44;8380733;28;20234;-69
2023/03/30 00:58:09;;;;;;;3.27;2.50;;;;;;;13.41;55.83;97540.38;8380439;28;20258;-69
2023/03/30 01:02:15;;;;;;;3.90;2.50;;;;;;;13.24;56.07;97531.81;8380429;28;20226;-70
2023/03/30 01:06:23;;;;;;;5.53;2.57;;;;;;;13.35;56.33;97515.56;8380228;28;20223;-69
2023/03/30 01:10:27;;;;;;;3.00;2.07;;;;;;;13.40;55.81;97515.28;8379892;28;20229;-69
2023/03/30 01:14:30;;;;;;;5.20;2.50;;;;;;;13.27;56.14;97513.44;8380018;28;20233;-69
2023/03/30 01:18:43;;;;;;;5.63;2.57;;;;;;;12.93;56.81;97493.88;8379782;28;20229;-69
2023/03/30 01:23:02;;;;;;;6.73;2.20;;;;;;;13.56;55.10;97509.97;8379595;28;20256;-68
2023/03/30 01:27:12;;;;;;;3.83;2.33;;;;;;;13.27;55.67;97469.22;8379567;28;20228;-69
2023/03/30 01:31:31;;;;;;;4.93;2.13;;;;;;;13.61;54.53;97482.72;8379697;28;20230;-69
2023/03/30 01:35:56;;;;;;;3.60;2.30;;;;;;;13.38;55.09;97478.94;8379769;28;20287;-70
2023/03/30 01:40:07;;;;;;;3.30;2.50;;;;;;;13.37;55.29;97464.28;8379047;28;20226;-69
2023/03/30 01:44:17;;;;;;;6.07;2.20;;;;;;;13.32;55.22;97468.94;8378901;28;20307;-69
2023/03/30 01:48:27;;;;;;;3.73;2.23;;;;;;;13.17;56.00;97444.72;8379344;28;20516;-69
2023/03/30 01:52:37;;;;;;;5.63;2.30;;;;;;;12.73;57.72;97432.72;8378991;28;20229;-69
2023/03/30 01:56:43;;;;;;;4.17;2.20;;;;;;;13.18;56.22;97438.59;8378829;28;20427;-69
2023/03/30 02:00:49;;;;;;;4.03;2.30;;;;;;;12.85;56.45;97421.59;8378035;28;20230;-69
2023/03/30 02:04:53;;;;;;;6.20;2.50;;;;;;;13.13;56.26;97434.63;8378992;28;20249;-70
2023/03/30 02:08:58;;;;;;;3.13;1.90;;;;;;;13.58;54.56;97438.66;8378704;28;20226;-69
2023/03/30 02:13:06;;;;;;;5.93;2.50;;;;;;;13.73;54.21;97447.25;8378739;28;20493;-69
2023/03/30 02:17:15;;;;;;;6.17;2.70;;;;;;;13.75;53.82;97434.97;8378589;28;20229;-69
2023/03/30 02:21:18;;;;;;;3.80;2.40;;;;;;;13.68;53.92;97433.69;8378631;28;20254;-69
2023/03/30 02:25:22;;;;;;;4.23;3.00;;;;;;;13.84;53.88;97442.19;8383983;28;20245;-69
2023/03/30 02:29:28;;;;;;;4.63;2.20;;;;;;;13.43;53.84;97385.88;8385335;28;20226;-69
2023/03/30 02:33:38;;;;;;;7.03;2.80;;;;;;;13.79;53.70;97448.63;8384974;28;20234;-69
2023/03/30 02:37:55;;;;;;;3.80;2.40;;;;;;;13.73;53.55;97438.59;8385034;28;20234;-69
2023/03/30 02:42:10;;;;;;;4.57;2.50;;;;;;;13.88;53.57;97432.41;8384377;28;20274;-69
2023/03/30 02:46:30;;;;;;;4.30;2.20;;;;;;;13.92;52.90;97433.88;8384881;28;20526;-69
2023/03/30 02:50:34;;;;;;;5.07;2.20;;;;;;;14.01;52.99;97435.00;8384725;28;20540;-69
2023/03/30 02:54:44;;;;;;;5.27;2.20;;;;;;;13.98;52.89;97435.22;8384543;28;20235;-69
2023/03/30 02:58:50;;;;;;;7.50;2.30;;;;;;;14.04;52.82;97443.44;8384030;28;20228;-69
2023/03/30 03:02:59;;;;;;;5.10;2.30;;;;;;;14.06;53.09;97448.56;8384007;28;20242;-69
2023/03/30 03:07:02;;;;;;;7.03;2.40;;;;;;;13.97;52.72;97428.34;8383984;28;20442;-69
2023/03/30 03:11:05;;;;;;;7.60;2.27;;;;;;;14.22;52.61;97450.97;8383916;28;20227;-69
2023/03/30 03:15:10;;;;;;;7.63;2.23;;;;;;;14.22;52.50;97444.00;8383981;28;20223;-69
2023/03/30 03:19:14;;;;;;;7.17;2.30;;;;;;;14.35;52.19;97441.38;8383538;28;20222;-69
2023/03/30 03:23:17;;;;;;;5.60;2.33;;;;;;;14.40;52.03;97448.91;8383245;28;20322;-69
2023/03/30 03:27:20;;;;;;;8.30;2.53;;;;;;;14.52;52.15;97444.63;8383261;28;20237;-69
2023/03/30 03:31:25;;;;;;;3.77;2.10;;;;;;;14.51;52.54;97432.50;8383357;28;20534;-69
2023/03/30 03:35:30;;;;;;;9.63;2.70;;;;;;;14.57;51.70;97437.34;8382881;28;20231;-69
2023/03/30 03:39:34;;;;;;;8.00;2.20;;;;;;;14.60;52.18;97447.53;8383177;28;20227;-69
2023/03/30 03:43:37;;;;;;;9.37;2.57;;;;;;;14.52;53.40;97421.16;8382863;28;20247;-69
2023/03/30 03:47:40;;;;;;;9.23;2.53;;;;;;;14.39;53.84;97428.97;8382743;28;20238;-69
2023/03/30 03:51:44;;;;;;;7.17;2.33;;;;;;;14.55;54.07;97427.00;8382042;28;20224;-69
2023/03/30 03:55:47;;;;;;;4.77;1.90;;;;;;;14.64;53.65;97423.78;8382387;28;20235;-69
2023/03/30 03:59:50;;;;;;;8.80;2.57;;;;;;;14.69;54.19;97420.84;8382498;28;20518;-69
2023/03/30 04:03:53;;;;;;;8.90;2.77;;;;;;;14.74;53.82;97429.19;8382270;28;20233;-70
2023/03/30 04:07:57;;;;;;;8.23;2.60;;;;;;;14.82;53.62;97431.25;8382406;28;20236;-69
2023/03/30 04:12:00;;;;;;;9.67;2.30;;;;;;;14.82;54.00;97432.09;8381776;28;20239;-70
2023/03/30 04:16:03;;;;;;;9.97;2.80;;;;;;;14.84;54.13;97429.38;8381997;28;20539;-69
2023/03/30 04:20:11;;;;;;;9.07;2.80;;;;;;;14.80;54.51;97417.50;8381616;28;20225;-70
2023/03/30 04:24:16;;;;;;;9.17;2.70;;;;;;;14.86;55.23;97420.50;8381437;28;20243;-70
2023/03/30 04:28:20;;;;;;;11.43;3.40;;;;;;;14.76;56.48;97416.88;8381554;28;20223;-70
2023/03/30 04:32:23;;;;;;;8.90;2.60;;;;;;;14.96;56.83;97433.72;8381412;28;20229;-70
2023/03/30 04:36:26;;;;;;;14.73;2.93;;;;;;;14.90;58.18;97423.72;8381203;28;20523;-69
2023/03/30 04:40:30;;;;;;;14.37;3.00;;;;;;;14.85;59.72;97423.25;8380990;28;20236;-70
2023/03/30 04:44:33;;;;;;;11.60;3.03;;;;;;;14.97;60.50;97432.78;8380688;28;20243;-70
2023/03/30 04:48:36;;;;;;;13.43;3.33;;;;;;;14.88;62.19;97454.28;8380017;28;20528;-70
2023/03/30 04:52:42;;;;;;;9.67;3.03;;;;;;;14.85;63.46;97457.13;8380509;28;20232;-70
2023/03/30 04:56:46;;;;;;;14.87;3.27;;;;;;;14.89;64.63;97447.28;8380017;28;20424;-69
2023/03/30 05:00:49;;;;;;;15.27;3.37;;;;;;;14.82;64.87;97446.91;8380312;28;20543;-69
2023/03/30 05:04:52;;;;;;;13.07;3.40;;;;;;;14.89;64.74;97447.28;8380093;28;20595;-69
2023/03/30 05:08:55;;;;;;;11.57;2.80;;;;;;;15.00;63.77;97442.16;8379737;28;20582;-69
2023/03/30 05:12:59;;;;;;;10.43;3.17;;;;;;;14.98;64.67;97431.88;8379511;28;20301;-69
2023/03/30 05:17:04;;;;;;;10.93;3.10;;;;;;;15.01;64.96;97410.75;8379687;28;20238;-69
2023/03/30 05:21:07;;;;;;;10.33;3.10;;;;;;;15.03;64.38;97434.13;8379675;28;20227;-69
2023/03/30 05:25:10;;;;;;;10.03;3.47;;;;;;;15.03;63.97;97440.16;8379268;28;20462;-69
2023/03/30 05:29:16;;;;;;;11.20;2.93;;;;;;;15.08;63.88;97441.63;8378861;28;20239;-69
2023/03/30 05:33:18;;;;;;;13.20;3.50;;;;;;;14.98;64.20;97426.66;8379265;28;20232;-69
2023/03/30 05:37:21;;;;;;;14.70;3.90;;;;;;;14.93;65.16;97427.91;8378950;28;20251;-69
2023/03/30 05:41:26;;;;;;;13.37;4.17;;;;;;;14.98;64.83;97421.44;8379019;28;20239;-69
2023/03/30 05:45:31;;;;;;;13.47;4.10;;;;;;;14.55;65.79;97431.38;8379119;28;20232;-69
2023/03/30 05:49:36;;;;;;;14.87;3.73;;;;;;;14.94;64.52;97411.31;8379055;28;20228;-69
2023/03/30 05:53:38;;;;;;;17.37;4.20;;;;;;;14.91;65.07;97411.53;8379124;28;20574;-69
2023/03/30 05:57:41;;;;;;;10.00;3.77;;;;;;;14.60;66.06;97387.63;8377751;28;20523;-69
2023/03/30 06:01:46;;;;;;;11.73;3.30;;;;;;;14.70;66.02;97377.38;8378707;28;20243;-69
2023/03/30 06:05:49;;;;;;;16.30;4.27;;;;;;;14.40;67.57;97368.97;8378526;28;20244;-69
2023/03/30 06:09:52;;;;;;;11.00;4.03;;;;;;;14.31;67.98;97348.75;8378641;28;20520;-69
2023/03/30 06:13:54;;;;;;;13.30;3.77;;;;;;;14.14;69.48;97336.91;8378638;28;20239;-70
2023/03/30 06:18:02;;;;;;;18.50;4.43;;;;;;;13.77;70.69;97339.41;8378505;28;20554;-69
2023/03/30 06:22:05;;;;;;;17.43;4.83;;;;;;;14.20;68.90;97343.47;8378198;28;20430;-69
2023/03/30 06:26:08;;;;;;;11.10;4.33;;;;;;;14.34;67.86;97356.38;8378329;28;20255;-69
2023/03/30 06:30:14;;;;;;;12.80;3.77;;;;;;;14.19;68.43;97360.88;8378421;28;20249;-69
2023/03/30 06:34:18;;;;;;;12.13;4.20;;;;;;;13.92;69.78;97352.31;8378359;28;20235;-69
2023/03/30 06:38:22;;;;;;;11.73;4.20;;;;;;;14.15;68.78;97348.16;8378373;28;20292;-70
2023/03/30 06:42:26;;;;;;;12.90;4.10;;;;;;;14.32;68.29;97350.44;8378291;28;20412;-69
2023/03/30 06:46:29;;;;;;;14.83;4.00;;;;;;;14.35;68.71;97345.00;8378276;28;20428;-69
2023/03/30 06:50:34;;;;;;;13.77;3.93;;;;;;;14.57;67.52;97328.75;8377967;28;20512;-69
2023/03/30 06:54:36;;;;;;;10.00;3.80;;;;;;;14.57;68.23;97333.13;8377815;28;20254;-70
2023/03/30 06:58:40;;;;;;;13.73;4.23;;;;;;;14.74;67.25;97344.97;8378212;28;20535;-70
2023/03/30 07:02:43;;;;;;;12.20;3.93;;;;;;;14.95;66.82;97360.84;8377179;28;20247;-68
2023/03/30 07:06:47;;;;;;;14.77;4.20;;;;;;;14.94;66.79;97346.13;8377645;28;20223;-69
2023/03/30 07:10:53;;;;;;;13.63;4.50;;;;;;;14.36;70.03;97338.88;8381963;28;20569;-69
2023/03/30 07:14:56;;;;;;;15.37;4.70;;;;;;;14.47;69.84;97353.75;8383808;28;20239;-69
2023/03/30 07:18:59;;;;;;;11.50;4.50;;;;;;;14.71;69.66;97366.84;8383459;28;20240;-69
2023/03/30 07:23:03;;;;;;;13.30;4.97;;;;;;;14.84;69.32;97406.75;8383082;28;20243;-69
2023/03/30 07:27:06;;;;;;;11.97;3.93;;;;;;;14.76;69.54;97468.19;8383518;28;20232;-69
2023/03/30 07:31:12;;;;;;;16.97;4.17;;;;;;;14.46;71.77;97490.16;8383256;28;20527;-69
2023/03/30 07:35:15;;;;;;;13.90;3.70;;;;;;;14.75;70.71;97498.59;8383416;28;20246;-69
2023/03/30 07:39:19;;;;;;;14.50;4.20;;;;;;;14.85;69.89;97499.66;8383153;28;20229;-69
2023/03/30 07:43:22;;;;;;;10.50;3.60;;;;;;;14.95;70.13;97493.81;8383067;28;20227;-69
2023/03/30 07:47:25;;;;;;;11.93;3.67;;;;;;;14.85;70.92;97511.88;8383447;28;20232;-69
2023/03/30 07:51:28;;;;;;;11.63;3.80;;;;;;;14.81;71.29;97520.81;8382911;28;20240;-70
2023/03/30 07:55:32;;;;;;;17.47;4.47;;;;;;;14.75;71.47;97531.66;8382777;28;20240;-69
2023/03/30 07:59:35;;;;;;;13.90;4.00;;;;;;;14.89;71.10;97517.69;8382620;28;20232;-70
2023/03/30 08:03:38;;;;;;;14.20;4.53;;;;;;;14.62;71.62;97489.97;8382692;28;20285;-70
2023/03/30 08:07:41;;;;;;;13.87;4.40;;;;;;;14.80;72.14;97506.97;8382011;28;20232;-68
2023/03/30 08:11:45;;;;;;;15.10;4.10;;;;;;;14.96;71.09;97505.91;8382011;28;20246;-69
2023/03/30 08:15:49;;;;;;;10.47;3.97;;;;;;;15.00;71.15;97492.56;8382026;28;20243;-69
2023/03/30 08:19:52;;;;;;;12.87;4.03;;;;;;;14.99;71.53;97510.91;8381461;28;20430;-69
2023/03/30 08:23:57;;;;;;;10.87;3.73;;;;;;;14.99;71.59;97539.59;8381242;28;20251;-69
2023/03/30 08:28:01;;;;;;;14.80;4.33;;;;;;;14.97;71.14;97557.13;8381484;28;20232;-69
2023/03/30 08:32:05;;;;;;;15.60;5.00;;;;;;;14.78;73.22;97513.22;8381228;28;20232;-69
2023/03/30 08:36:08;;;;;;;9.20;2.37;;;;;;;16.61;66.63;97528.78;8381415;28;20246;-71
2023/03/30 08:40:12;;;;;;;4.07;2.33;;;;;;;17.08;64.04;97513.88;8381293;28;20292;-71
2023/03/30 08:44:22;;;;;;;5.77;3.27;;;;;;;17.82;61.13;97521.13;8381052;28;20225;-71
2023/03/30 08:48:27;;;;;;;8.83;4.10;;;;;;;17.94;60.53;97521.94;8381172;28;20524;-71
2023/03/30 08:52:31;;;;;;;11.70;4.47;;;;;;;17.45;61.60;97512.75;8381157;28;20235;-70
2023/03/30 08:56:35;;;;;;;10.03;4.00;;;;;;;16.48;65.21;97507.13;8380728;28;20241;-70
2023/03/30 09:00:42;;;;;;;13.23;5.17;;;;;;;16.09;67.28;97507.41;8380702;28;20227;-70
2023/03/30 09:04:55;;;;;;;15.87;5.00;;;;;;;15.79;69.20;97508.69;8380387;28;20240;-69
2023/03/30 09:08:58;;;;;;;12.03;4.40;;;;;;;15.55;70.23;97494.78;8380210;28;20273;-70
2023/03/30 09:13:04;;;;;;;11.13;5.10;;;;;;;15.23;72.31;97488.31;8380565;28;20421;-71
2023/03/30 09:17:11;;;;;;;10.00;4.40;;;;;;;15.25;72.42;97491.66;8380344;28;20279;-71
2023/03/30 09:21:15;;;;;;;12.60;5.07;;;;;;;15.10;74.06;97494.50;8380386;28;20513;-71
2023/03/30 09:25:20;;;;;;;11.33;5.00;;;;;;;15.38;72.71;97498.59;8379793;28;20297;-70
2023/03/30 09:29:26;;;;;;;13.17;4.73;;;;;;;15.39;72.08;97511.53;8380049;28;20443;-71
2023/03/30 09:33:37;;;;;;;12.33;4.90;;;;;;;15.41;70.91;97520.09;8379786;28;20250;-70
2023/03/30 09:37:39;;;;;;;12.70;4.37;;;;;;;15.48;71.15;97525.72;8379725;28;20232;-69
2023/03/30 09:41:51;;;;;;;10.43;4.30;;;;;;;15.53;70.50;97522.75;8379002;28;20232;-68
2023/03/30 09:45:55;;;;;;;10.87;4.50;;;;;;;15.15;73.37;97505.44;8379385;28;20240;-69
2023/03/30 09:50:01;;;;;;;15.63;4.77;;;;;;;14.71;76.41;97484.13;8379614;28;20225;-69
2023/03/30 09:54:05;;;;;;;11.50;5.50;;;;;;;14.81;75.10;97495.59;8379370;28;20524;-71
2023/03/30 09:58:16;;;;;;;12.33;5.13;;;;;;;15.02;73.80;97455.91;8379259;28;20270;-69
2023/03/30 10:02:20;;;;;;;15.73;5.10;;;;;;;14.97;74.13;97458.88;8379466;28;20414;-69
2023/03/30 10:06:24;;;;;;;10.57;4.80;;;;;;;15.53;72.43;97474.00;8379203;28;20305;-69
2023/03/30 10:10:31;;;;;;;11.10;5.00;;;;;;;15.54;72.74;97465.25;8379111;28;20244;-69
2023/03/30 10:14:35;;;;;;;12.73;5.30;;;;;;;15.01;76.18;97449.88;8378969;28;20236;-69
2023/03/30 10:18:41;;;;;;;13.97;5.60;;;;;;;15.40;73.11;97460.19;8378904;28;20229;-69
2023/03/30 10:22:52;;;;;;;12.60;4.70;;;;;;;15.16;75.48;97447.97;8378444;28;20404;-71
2023/03/30 10:26:57;;;;;;;11.43;4.93;;;;;;;15.33;72.64;97448.53;8378607;28;20237;-71
2023/03/30 10:31:02;;;;;;;11.60;5.20;;;;;;;15.21;73.79;97447.63;8378833;28;20232;-71
2023/03/30 10:35:09;;;;;;;12.73;4.33;;;;;;;15.35;73.87;97457.09;8378827;28;20298;-71
2023/03/30 10:39:18;;;;;;;15.90;4.70;;;;;;;15.62;71.97;97473.34;8378710;28;20516;-71
2023/03/30 10:43:23;;;;;;;9.77;4.13;;;;;;;15.70;72.16;97464.13;8379011;28;20233;-70
2023/03/30 10:47:45;;;;;;;11.00;4.87;;;;;;;15.80;70.71;97466.00;8384920;28;20231;-71
2023/03/30 10:51:55;;;;;;;11.43;4.53;;;;;;;15.64;70.22;97441.91;8384312;28;20225;-70
2023/03/30 10:56:05;;;;;;;9.83;3.80;;;;;;;15.75;69.68;97457.66;8384411;28;20234;-70
2023/03/30 11:00:20;;;;;;;9.30;3.70;;;;;;;16.54;67.37;97457.00;8384725;28;20236;-70
2023/03/30 11:04:28;;;;;;;6.57;2.80;;;;;;;16.52;66.95;97432.78;8385027;28;20225;-71
2023/03/30 11:08:34;;;;;;;4.97;2.57;;;;;;;16.41;66.43;97442.28;8384630;28;20241;-72
2023/03/30 11:12:41;;;;;;;6.20;2.10;;;;;;;16.84;62.51;97442.56;8384520;28;20420;-70
2023/03/30 11:16:49;;;;;;;3.90;2.07;;;;;;;16.42;63.22;97427.41;8383793;28;20254;-69
2023/03/30 11:21:00;;;;;;;3.83;2.07;;;;;;;16.47;63.00;97433.13;8384226;28;20393;-71
2023/03/30 11:25:08;;;;;;;4.33;2.17;;;;;;;16.35;63.83;97437.50;8383567;28;20497;-71
2023/03/30 11:29:26;;;;;;;5.50;2.40;;;;;;;16.40;63.38;97437.97;8383582;28;20237;-71
2023/03/30 11:33:35;;;;;;;4.30;2.30;;;;;;;16.69;62.99;97436.69;8383634;28;20225;-74
2023/03/30 11:37:42;;;;;;;5.17;2.27;;;;;;;16.58;63.79;97437.53;8383631;28;20222;-73
2023/03/30 11:41:48;;;;;;;4.93;2.23;;;;;;;16.88;62.99;97441.34;8382699;28;20417;-71
2023/03/30 11:46:02;;;;;;;3.37;2.10;;;;;;;16.45;60.99;97442.88;8383273;28;20413;-72
2023/03/30 11:50:20;;;;;;;3.47;2.20;;;;;;;16.34;61.44;97422.78;8383317;28;20227;-71
2023/03/30 11:54:43;;;;;;;6.70;1.90;;;;;;;16.41;60.44;97455.34;8383335;28;20234;-71
2023/03/30 11:59:05;;;;;;;3.07;2.10;;;;;;;16.57;59.44;97430.66;8382645;28;20238;-71
2023/03/30 12:03:17;;;;;;;3.97;2.13;;;;;;;16.47;60.49;97430.53;8382965;28;20226;-71
2023/03/30 12:07:29;;;;;;;3.87;2.20;;;;;;;16.64;59.21;97438.81;8382110;28;20232;-71
2023/03/30 12:11:37;;;;;;;2.90;1.90;;;;;;;16.87;58.59;97458.00;8382291;28;20243;-72
2023/03/30 12:15:45;;;;;;;4.57;2.07;;;;;;;16.68;56.40;97429.78;8382227;28;20238;-71
2023/03/30 12:19:52;;;;;;;4.20;1.90;;;;;;;16.94;55.65;97433.84;8381764;28;20543;-71
2023/03/30 12:24:05;;;;;;;5.07;2.23;;;;;;;17.35;55.03;97434.97;8381793;28;20304;-70
2023/03/30 12:28:14;;;;;;;3.67;2.00;;;;;;;17.82;52.78;97437.31;8381593;28;20384;-71
2023/03/30 12:32:22;;;;;;;3.73;1.83;;;;;;;17.72;53.91;97431.97;8381897;28;20536;-70
2023/03/30 12:36:37;;;;;;;3.03;1.80;;;;;;;17.06;53.90;97419.00;8381679;28;20236;-70
2023/03/30 12:40:45;;;;;;;4.57;2.50;;;;;;;17.51;51.97;97428.50;8381443;28;20525;-70
2023/03/30 12:44:56;;;;;;;5.50;2.20;;;;;;;17.22;52.96;97407.31;8380960;28;20239;-69
2023/03/30 12:49:05;;;;;;;4.13;2.40;;;;;;;17.16;53.56;97414.69;8381004;28;20542;-69
2023/03/30 12:53:41;;;;;;;3.97;1.90;;;;;;;16.74;53.61;97413.66;8381082;28;20532;-69
2023/03/30 12:58:02;;;;;;;4.63;1.80;;;;;;;17.23;52.95;97414.19;8380565;28;20240;-69
2023/03/30 13:02:54;;;;;;;5.13;2.10;;;;;;;16.70;53.19;97410.44;8380839;28;20231;-71
2023/03/30 13:06:58;;;;;;;4.10;2.20;;;;;;;16.91;53.49;97415.81;8311204;28;20235;-70
2023/03/30 13:11:13;;;;;;;3.20;2.07;;;;;;;16.88;53.35;97405.56;8380783;28;20539;-69
2023/03/30 13:15:42;;;;;;;3.90;2.17;;;;;;;16.73;52.33;97397.09;8380337;28;20518;-69
2023/03/30 13:19:50;;;;;;;3.40;1.93;;;;;;;17.07;51.86;97402.31;8379823;28;20225;-69
2023/03/30 13:24:03;;;;;;;4.67;2.00;;;;;;;16.88;50.76;97386.44;8380045;28;20521;-69
2023/03/30 13:28:36;;;;;;;5.43;1.70;;;;;;;17.43;50.16;97384.63;8379972;28;20248;-70
2023/03/30 13:32:50;;;;;;;5.47;1.90;;;;;;;17.48;49.03;97355.47;8367351;28;20232;-71
2023/03/30 13:36:59;;;;;;;7.23;2.30;;;;;;;17.85;47.56;97353.25;8379279;28;20228;-70
2023/03/30 13:41:12;;;;;;;3.83;2.00;;;;;;;18.45;45.54;97344.72;8379737;28;20223;-71
2023/03/30 13:45:27;;;;;;;5.13;1.93;;;;;;;18.14;46.73;97344.72;8379515;28;20239;-73
2023/03/30 13:49:41;;;;;;;5.70;2.27;;;;;;;17.91;47.44;97338.81;8379271;28;20229;-72
2023/03/30 13:53:47;;;;;;;3.10;1.90;;;;;;;18.30;46.91;97352.13;8378585;28;20412;-74
2023/03/30 13:57:54;;;;;;;5.10;2.10;;;;;;;17.36;48.38;97339.81;8379230;28;20240;-73
2023/03/30 14:01:59;;;;;;;3.63;2.10;;;;;;;17.87;47.92;97335.63;8378917;28;20275;-73
2023/03/30 14:06:07;;;;;;;3.67;1.80;;;;;;;17.66;48.66;97319.88;8379229;28;20225;-71
2023/03/30 14:10:12;;;;;;;3.57;2.00;;;;;;;17.71;49.01;97316.91;8378605;28;20287;-72
2023/03/30 14:14:17;;;;;;;3.60;2.20;;;;;;;17.63;48.88;97317.53;8379200;28;20233;-72
2023/03/30 14:18:23;;;;;;;5.80;1.93;;;;;;;17.92;48.02;97314.28;8379414;28;20224;-72
2023/03/30 14:22:28;;;;;;;3.40;2.20;;;;;;;18.10;47.11;97299.59;8385421;28;20229;-72
2023/03/30 14:26:31;;;;;;;5.37;2.10;;;;;;;19.07;45.43;97301.66;8385555;28;20527;-72
2023/03/30 14:30:34;;;;;;;4.60;1.80;;;;;;;19.13;43.14;97298.50;8385916;28;20224;-73
2023/03/30 14:34:37;;;;;;;2.27;1.60;;;;;;;19.91;42.40;97287.94;8385615;28;20259;-73
2023/03/30 14:38:43;;;;;;;3.40;1.90;;;;;;;19.12;43.40;97286.34;8385493;28;20228;-72
2023/03/30 14:42:46;;;;;;;4.03;2.03;;;;;;;18.66;45.03;97297.47;8385128;28;20233;-73
2023/03/30 14:46:50;;;;;;;2.43;1.90;;;;;;;18.15;45.84;97307.09;8385184;28;20229;-72
2023/03/30 14:50:53;;;;;;;3.33;1.80;;;;;;;17.93;46.43;97292.38;8385277;28;20232;-74
2023/03/30 14:54:58;;;;;;;5.57;2.37;;;;;;;17.90;46.77;97288.22;8385114;28;20417;-72
2023/03/30 14:59:12;;;;;;;5.10;1.80;;;;;;;17.63;47.56;97280.03;8384978;28;20229;-72
2023/03/30 15:03:14;;;;;;;6.20;1.83;;;;;;;17.46;47.94;97294.53;8384847;28;20235;-72
2023/03/30 15:07:36;;;;;;;4.97;1.73;;;;;;;17.56;47.68;97292.81;8384166;28;20244;-72
2023/03/30 15:11:40;;;;;;;3.30;2.00;;;;;;;17.46;48.04;97300.63;8384835;28;20492;-72
2023/03/30 15:15:43;;;;;;;4.03;1.70;;;;;;;17.25;48.88;97305.00;8384069;28;20295;-70
2023/03/30 15:19:47;;;;;;;4.80;2.10;;;;;;;17.35;48.33;97296.25;8383644;28;20275;-69
2023/03/30 15:23:50;;;;;;;3.90;1.80;;;;;;;17.84;47.12;97304.47;8383815;28;20519;-71
2023/03/30 15:27:58;;;;;;;4.30;1.80;;;;;;;17.46;46.41;97305.84;8383433;28;20235;-70
2023/03/30 15:32:06;;;;;;;3.37;1.83;;;;;;;17.78;45.27;97300.53;8383144;28;20238;-70
2023/03/30 15:36:12;;;;;;;2.97;1.50;;;;;;;18.19;43.54;97303.25;8383424;28;20225;-70
2023/03/30 15:40:28;;;;;;;4.17;1.63;;;;;;;18.43;43.27;97300.31;8383389;28;20224;-70
2023/03/30 15:44:36;;;;;;;3.20;1.50;;;;;;;18.53;42.95;97311.63;8383316;28;20257;-72
2023/03/30 15:48:41;;;;;;;5.87;1.93;;;;;;;18.46;42.95;97317.53;8383055;28;20281;-71
2023/03/30 15:52:45;;;;;;;3.43;1.50;;;;;;;17.95;43.44;97322.72;8382226;28;20279;-70
2023/03/30 15:56:51;;;;;;;3.13;1.37;;;;;;;18.02;43.27;97325.63;8382762;28;20240;-71
2023/03/30 16:00:56;;;;;;;3.73;1.70;;;;;;;18.02;43.34;97309.91;8382751;28;20228;-71
2023/03/30 16:05:00;;;;;;;2.30;1.60;;;;;;;18.12;43.08;97325.69;8382500;28;20288;-70
2023/03/30 16:09:03;;;;;;;5.10;1.50;;;;;;;17.73;43.09;97321.03;8382326;28;20247;-71
2023/03/30 16:13:10;;;;;;;4.90;1.47;;;;;;;17.56;42.82;97319.81;8382039;28;20248;-71
2023/03/30 16:17:15;;;;;;;3.57;1.23;;;;;;;17.34;43.37;97318.19;8381930;28;20312;-70
2023/03/30 16:21:18;;;;;;;4.33;2.50;;;;;;;17.62;43.91;97315.06;8381776;28;20273;-71
2023/03/30 16:25:22;;;;;;;3.43;1.40;;;;;;;17.36;43.79;97318.03;8381844;28;20228;-71
2023/03/30 16:29:39;;;;;;;5.70;2.07;;;;;;;17.48;44.43;97318.81;8381701;28;20245;-72
2023/03/30 16:33:46;;;;;;;3.00;1.47;;;;;;;17.34;44.95;97315.56;8380933;28;20228;-71
2023/03/30 16:37:49;;;;;;;5.00;2.43;;;;;;;17.11;45.73;97313.97;8381220;28;20228;-71
2023/03/30 16:41:52;;;;;;;8.60;3.50;;;;;;;16.96;46.42;97311.66;8380573;28;20465;-71
2023/03/30 16:45:55;;;;;;;5.13;2.83;;;;;;;16.96;46.52;97316.03;8381304;28;20536;-71
2023/03/30 16:50:00;;;;;;;4.47;2.70;;;;;;;16.93;46.66;97321.53;8380700;28;20255;-71
2023/03/30 16:54:06;;;;;;;5.90;3.37;;;;;;;16.74;46.67;97314.31;8380846;28;20515;-71
2023/03/30 16:58:26;;;;;;;5.80;3.20;;;;;;;16.74;47.12;97322.16;8380798;28;20222;-70
2023/03/30 17:02:29;;;;;;;3.23;1.60;;;;;;;16.48;48.12;97386.91;8380643;28;20235;-70
2023/03/30 17:06:33;;;;;;;4.50;1.40;;;;;;;15.78;56.82;97438.31;8380306;28;20250;-71
2023/03/30 17:10:39;;;;;;;3.43;1.23;;;;;;;15.48;56.63;97423.94;8380937;28;20240;-71
2023/03/30 17:14:42;;;;;;;4.63;1.17;;;;;;;16.05;55.18;97411.09;8380418;28;20238;-71
2023/03/30 17:18:45;;;;;;;5.67;2.27;;;;;;;16.24;54.78;97427.06;8380760;28;20229;-69
2023/03/30 17:22:50;;;;;;;4.27;2.90;;;;;;;16.37;54.92;97416.47;8380095;28;20258;-70
2023/03/30 17:27:01;;;;;;;9.70;6.67;;;;;;;16.28;55.59;97406.72;8380048;28;20286;-71
2023/03/30 17:31:06;;;;;;;3.37;2.60;;;;;;;16.16;56.88;97430.25;8380432;28;20228;-70
2023/03/30 17:35:12;;;;;;;4.33;1.70;;;;;;;15.99;57.11;97435.88;8380080;28;20229;-71
2023/03/30 17:39:17;;;;;;;1.43;1.07;;;;;;;15.93;57.25;97433.75;8379652;28;20228;-71
2023/03/30 17:43:20;;;;;;;2.50;1.83;;;;;;;15.72;58.84;97426.50;8379767;28;20241;-72
2023/03/30 17:47:23;;;;;;;12.63;10.20;;;;;;;15.64;59.27;97428.88;8379773;28;20233;-71
2023/03/30 17:51:26;;;;;;;19.30;14.30;;;;;;;15.68;58.15;97432.91;8380535;28;20228;-71
2023/03/30 17:55:34;;;;;;;27.10;20.30;;;;;;;15.72;58.02;97436.13;8380172;28;20321;-70
2023/03/30 17:59:36;;;;;;;22.97;16.47;;;;;;;15.54;59.29;97438.31;8379883;28;20550;-71
2023/03/30 18:03:39;;;;;;;17.67;12.67;;;;;;;15.57;58.29;97445.91;8379174;28;20558;-71
2023/03/30 18:07:42;;;;;;;14.90;11.53;;;;;;;15.48;58.56;97439.59;8378454;28;20322;-70
2023/03/30 18:11:46;;;;;;;14.87;11.70;;;;;;;15.38;59.04;97439.44;8378381;28;20556;-70
2023/03/30 18:15:54;;;;;;;14.43;10.43;;;;;;;15.17;59.82;97422.72;8379157;28;20480;-70
2023/03/30 18:20:00;;;;;;;7.57;6.03;;;;;;;14.63;59.39;97351.75;8379156;28;20226;-72
2023/03/30 18:24:03;;;;;;;5.30;4.60;;;;;;;15.13;60.08;97435.13;8378706;28;20240;-71
2023/03/30 18:28:15;;;;;;;5.27;4.13;;;;;;;15.10;59.49;97432.75;8378895;28;20237;-71
2023/03/30 18:32:19;;;;;;;6.63;4.80;;;;;;;15.25;59.35;97446.50;8378827;28;20226;-71
2023/03/30 18:36:22;;;;;;;8.87;6.27;;;;;;;15.22;58.63;97444.91;8378719;28;20554;-70
2023/03/30 18:40:27;;;;;;;11.20;10.07;;;;;;;15.10;59.09;97447.56;8378557;28;20579;-71
2023/03/30 18:44:34;;;;;;;9.87;7.20;;;;;;;15.10;58.70;97445.81;8378550;28;20232;-71
2023/03/30 18:48:37;;;;;;;9.03;5.77;;;;;;;15.02;58.52;97458.53;8378520;28;20232;-71
2023/03/30 18:52:40;;;;;;;6.53;4.93;;;;;;;14.95;58.87;97457.31;8378278;28;20424;-71
2023/03/30 18:56:44;;;;;;;5.77;3.10;;;;;;;15.76;63.98;97472.38;8378046;28;20240;-71
2023/03/30 19:00:49;;;;;;;3.90;3.23;;;;;;;16.11;62.01;97468.13;8378381;28;20256;-71
2023/03/30 19:04:54;;;;;;;6.40;3.33;;;;;;;15.83;56.61;97470.16;8379055;28;20229;-71
2023/03/30 19:09:00;;;;;;;5.10;3.20;;;;;;;15.38;56.96;97470.75;8384287;28;20244;-69
2023/03/30 19:13:02;;;;;;;5.67;3.17;;;;;;;15.14;57.42;97465.50;8384443;28;20225;-69